Latest Weather Observations for Wilcannia Airport

IDN60801

Issued at 6:05 pm EST Monday 28 July 2014 (issued every 30 minutes, with the page automatically refreshed every 10 minutes)

About weather observations | Map of weather stations | Latest weather observations for NSW | Other Formats
Station Details ID: 046012 Name: WILCANNIA AERODROME AWS Lat: -31.52 Lon: 143.38 Height: 94.3 m
Data from the previous 72 hours. | See also: Recent months for locations in New South Wales
Date/Time
EST
Temp
°C
App
Temp
°C
Dew
Point
Rel
Hum
%
Delta-T
°C
Wind Press
QNH
hPa
Press
MSL
hPa
Rain
since 9 am
mm
Dir
 
Spd
km/h
Gust
km/h
Spd
kts
Gust
kts
28/06:00pm 17.2 12.8 -2.4 26 8.0 NNW 11 15 6 8 1018.7 1018.8 0.0
28/05:30pm 20.3 16.3 -2.1 22 9.5 NNW 9 15 5 8 1018.6 - 0.0
28/05:00pm 21.9 17.6 -2.0 20 10.3 NW 11 17 6 9 1018.6 1018.7 0.0
28/04:30pm 22.3 17.9 -2.4 19 10.7 NW 11 17 6 9 1018.6 - 0.0
28/04:00pm 22.7 17.9 -2.8 18 10.9 NW 13 22 7 12 1018.6 1018.7 0.0
28/03:30pm 22.4 16.9 -2.3 19 10.7 WNW 17 24 9 13 1018.8 - 0.0
28/03:00pm 22.9 17.7 -2.6 18 11.0 WNW 15 22 8 12 1019.0 1019.1 0.0
28/02:30pm 22.8 18.1 -2.0 19 10.8 NW 13 20 7 11 1019.3 - 0.0
28/02:00pm 22.2 16.7 -1.8 20 10.4 NNW 17 28 9 15 1019.6 1019.7 0.0
28/01:30pm 22.0 16.5 -2.0 20 10.4 NW 17 24 9 13 1020.2 - 0.0
28/01:00pm 21.8 16.4 -1.5 21 10.2 WNW 17 26 9 14 1020.9 1021.0 0.0
28/12:30pm 21.2 14.9 -1.3 22 9.8 NW 22 30 12 16 1021.6 - 0.0
28/12:00pm 20.9 14.5 -1.6 22 9.7 NW 22 32 12 17 1022.0 1022.1 0.0
28/11:30am 20.3 13.6 -0.9 24 9.3 NW 24 35 13 19 1022.4 - 0.0
28/11:00am 19.6 12.6 -0.4 26 8.7 NNW 26 35 14 19 1022.7 1022.9 0.0
28/10:30am 18.5 12.0 0.2 29 8.0 NNW 24 33 13 18 1022.9 - 0.0
28/10:00am 17.2 11.0 -0.1 31 7.4 NNW 22 28 12 15 1023.1 1023.3 0.0
28/09:30am 15.9 10.1 0.1 34 6.8 NNW 20 28 11 15 1023.0 - 0.0
28/09:00am 13.9 8.3 -0.2 38 5.9 NNW 19 24 10 13 1022.7 1022.9 0.0
28/08:30am 12.1 7.3 0.2 44 4.9 NNW 15 20 8 11 1022.5 - 0.0
28/08:00am 9.2 4.4 0.1 53 3.6 NNW 15 19 8 10 1022.3 1022.5 0.0
28/07:30am 6.7 1.8 -0.5 60 2.8 NNW 15 19 8 10 1022.2 - 0.0
28/07:00am 6.6 1.7 -0.6 60 2.7 NNW 15 17 8 9 1022.4 1022.6 0.0
28/06:30am 7.0 1.8 -0.2 60 2.8 N 17 20 9 11 1022.2 - 0.0
28/06:00am 7.0 1.8 0.0 61 2.7 NNW 17 20 9 11 1022.1 1022.3 0.0
28/05:30am 7.0 1.8 0.0 61 2.7 NNW 17 19 9 10 1022.1 - 0.0
28/05:00am 6.3 1.1 0.0 64 2.4 NNW 17 17 9 9 1022.2 1022.4 0.0
28/04:30am 5.1 1.0 -0.5 67 2.1 NW 11 13 6 7 1022.2 - 0.0
28/04:00am 6.4 2.0 0.3 65 2.4 N 13 15 7 8 1022.2 1022.4 0.0
28/03:30am 6.7 2.6 -0.5 60 2.8 NNW 11 13 6 7 1022.3 - 0.0
28/03:00am 8.4 3.7 0.6 58 3.1 N 15 17 8 9 1022.3 1022.5 0.0
28/02:30am 8.3 3.6 0.8 59 3.0 N 15 17 8 9 1022.3 - 0.0
28/02:00am 8.1 3.4 0.6 59 3.0 N 15 17 8 9 1022.4 1022.6 0.0
28/01:30am 8.2 3.1 0.7 59 3.0 N 17 17 9 9 1022.4 - 0.0
28/01:00am 9.2 4.2 1.1 57 3.3 N 17 20 9 11 1022.6 1022.8 0.0
28/12:30am 8.4 3.7 0.9 59 3.0 NNW 15 17 8 9 1023.1 - 0.0
28/12:00am 8.6 3.6 1.3 60 3.0 NNW 17 19 9 10 1023.4 1023.6 0.0
 
Date/Time
EST
Temp
°C
App
Temp
°C
Dew
Point
Rel
Hum
%
Delta-T
°C
Wind Press
QNH
hPa
Press
MSL
hPa
Rain
since 9 am
mm
Dir
 
Spd
km/h
Gust
km/h
Spd
kts
Gust
kts
27/11:30pm 7.6 2.9 0.6 61 2.8 NNW 15 17 8 9 1023.6 - 0.0
27/11:00pm 7.7 3.4 0.7 61 2.8 NW 13 17 7 9 1023.5 1023.7 0.0
27/10:30pm 8.4 4.1 0.9 59 3.0 NNE 13 15 7 8 1023.6 - 0.0
27/10:00pm 7.3 3.2 -0.2 59 2.9 NNE 11 13 6 7 1023.8 1024.0 0.0
27/09:30pm 8.5 4.4 0.0 55 3.4 NNE 11 13 6 7 1023.8 - 0.0
27/09:00pm 9.6 4.8 0.5 53 3.7 NNE 15 17 8 9 1023.4 1023.6 0.0
27/08:30pm 9.4 5.0 0.1 52 3.7 NNE 13 15 7 8 1023.6 - 0.0
27/08:00pm 12.0 7.4 1.6 49 4.4 NNE 15 19 8 10 1023.7 1023.9 0.0
27/07:30pm 10.1 5.8 0.7 52 3.9 NE 13 13 7 7 1024.2 - 0.0
27/07:00pm 9.4 5.5 -1.6 46 4.2 NE 9 11 5 6 1024.1 1024.2 0.0
27/06:30pm 11.9 9.8 -0.6 42 5.1 CALM 0 0 0 0 1024.0 - 0.0
27/06:00pm 15.0 12.9 -1.1 33 6.6 CALM 0 0 0 0 1023.8 1024.0 0.0
27/05:30pm 18.7 16.2 1.7 32 7.7 NW 4 7 2 4 1023.8 - 0.0
27/05:00pm 19.7 16.8 1.7 30 8.2 SW 6 13 3 7 1023.6 1023.8 0.0
27/04:30pm 19.9 16.4 1.4 29 8.4 W 9 13 5 7 1023.6 - 0.0
27/04:00pm 20.1 16.6 1.0 28 8.6 W 9 17 5 9 1023.7 1023.9 0.0
27/03:30pm 20.2 15.5 1.1 28 8.7 W 15 22 8 12 1024.0 - 0.0
27/03:00pm 20.0 16.1 1.4 29 8.4 W 11 17 6 9 1024.2 1024.3 0.0
27/02:30pm 20.2 16.0 1.6 29 8.5 WNW 13 20 7 11 1024.3 - 0.0
27/02:00pm 19.7 15.5 1.7 30 8.2 WSW 13 24 7 13 1024.6 1024.7 0.0
27/01:30pm 19.4 15.7 2.3 32 7.9 W 11 17 6 9 1025.1 - 0.0
27/01:00pm 19.1 14.4 1.1 30 8.1 WNW 15 20 8 11 1025.9 1026.0 0.0
27/12:30pm 18.5 15.1 1.9 33 7.6 WSW 9 20 5 11 1026.5 - 0.0
27/12:00pm 18.3 15.0 2.2 34 7.3 NNE 9 17 5 9 1027.1 1027.2 0.0
27/11:30am 18.0 14.7 2.7 36 7.1 W 9 15 5 8 1027.6 - 0.0
27/11:00am 17.7 16.1 4.3 41 6.3 NW 2 9 1 5 1027.9 1028.0 0.0
27/10:30am 17.3 14.8 4.9 44 5.9 NE 7 13 4 7 1028.1 - 0.0
27/10:00am 16.4 14.3 5.7 49 5.1 NE 6 9 3 5 1028.1 1028.2 0.0
27/09:30am 13.7 12.2 4.8 55 4.1 NW 2 6 1 3 1028.0 - 0.0
27/09:00am 11.3 8.9 4.5 63 3.1 WNW 6 7 3 4 1028.0 1028.1 0.0
27/08:30am 8.4 5.8 4.0 74 1.9 WNW 7 9 4 5 1027.8 - 0.0
27/08:00am 5.5 2.0 3.7 88 0.8 W 11 11 6 6 1027.9 1028.0 0.0
27/07:30am 3.0 -0.4 2.0 93 0.4 W 9 9 5 5 1027.7 - 0.0
27/07:00am 2.4 -0.7 1.1 91 0.5 W 7 9 4 5 1027.3 1027.4 0.0
27/06:30am 2.4 -0.8 0.9 90 0.6 W 7 9 4 5 1026.9 - 0.0
27/06:00am 1.6 -2.1 -0.2 88 0.7 W 9 9 5 5 1026.7 1026.8 0.0
27/05:30am 1.8 -2.0 -0.4 85 0.8 W 9 9 5 5 1026.5 - 0.0
27/05:00am 3.6 0.2 2.0 89 0.6 W 9 13 5 7 1026.6 1026.7 0.0
27/04:30am 3.4 1.4 2.1 91 0.5 SSW 2 11 1 6 1026.6 - 0.0
27/04:00am 2.3 0.4 0.7 89 0.6 CALM 0 0 0 0 1026.6 1026.7 0.0
27/03:30am 2.3 -0.5 -0.4 82 1.0 SSW 4 6 2 3 1026.7 - 0.0
27/03:00am 3.7 0.6 1.3 84 0.9 SSW 7 9 4 5 1026.9 1027.0 0.0
27/02:30am 3.2 -0.1 0.3 81 1.1 SSW 7 7 4 4 1027.1 - 0.0
27/02:00am 4.9 2.0 2.6 85 0.9 SSW 7 9 4 5 1027.2 1027.3 0.0
27/01:30am 5.0 2.3 2.4 83 1.1 SSW 6 7 3 4 1027.2 - 0.0
27/01:00am 5.1 2.3 2.1 81 1.2 S 6 7 3 4 1027.3 1027.4 0.0
27/12:30am 5.1 1.7 1.8 79 1.3 S 9 9 5 5 1027.5 - 0.0
27/12:00am 4.9 1.5 1.6 79 1.3 S 9 9 5 5 1027.6 1027.7 0.0
 
Date/Time
EST
Temp
°C
App
Temp
°C
Dew
Point
Rel
Hum
%
Delta-T
°C
Wind Press
QNH
hPa
Press
MSL
hPa
Rain
since 9 am
mm
Dir
 
Spd
km/h
Gust
km/h
Spd
kts
Gust
kts
26/11:30pm 5.6 1.7 1.2 73 1.7 SSW 11 11 6 6 1027.6 - 0.0
26/11:00pm 6.7 2.9 1.8 71 2.0 SSW 11 13 6 7 1027.7 1027.8 0.0
26/10:30pm 5.9 2.3 0.3 67 2.2 SSW 9 9 5 5 1027.8 - 0.0
26/10:00pm 7.9 5.1 3.2 72 2.0 SW 7 9 4 5 1027.8 1027.9 0.0
26/09:30pm 7.8 4.5 2.3 68 2.3 SW 9 11 5 6 1027.8 - 0.0
26/09:00pm 8.5 5.0 1.2 60 3.0 SW 9 9 5 5 1027.6 1027.7 0.0
26/08:30pm 10.5 6.9 2.8 59 3.3 SW 11 11 6 6 1027.3 - 0.0
26/08:00pm 11.3 7.8 3.6 59 3.4 SW 11 13 6 7 1027.1 1027.2 0.0
26/07:30pm 11.3 7.7 3.1 57 3.6 SW 11 13 6 7 1026.8 - 0.0
26/07:00pm 12.3 8.8 3.3 54 4.0 SW 11 13 6 7 1026.5 1026.6 0.0
26/06:30pm 13.1 9.6 3.5 52 4.3 SW 11 11 6 6 1026.4 - 0.0
26/06:00pm 14.5 10.9 3.0 46 5.1 SSW 11 13 6 7 1026.2 1026.3 0.0
26/05:30pm 17.1 13.2 3.4 40 6.4 SW 13 17 7 9 1025.8 - 0.0
26/05:00pm 18.3 13.3 3.8 38 6.8 SW 19 24 10 13 1025.7 1025.8 0.0
26/04:30pm 18.6 13.9 3.3 36 7.2 SW 17 28 9 15 1025.5 - 0.0
26/04:00pm 19.5 15.3 4.0 36 7.4 SW 15 22 8 12 1025.5 1025.6 0.0
26/03:30pm 19.7 14.5 3.8 35 7.6 SW 20 28 11 15 1025.4 - 0.0
26/03:00pm 19.6 14.4 3.7 35 7.5 SW 20 30 11 16 1025.3 1025.4 0.0
26/02:30pm 19.6 14.8 4.5 37 7.3 SW 19 26 10 14 1025.3 - 0.0
26/02:00pm 18.9 13.3 3.5 36 7.2 SSW 22 28 12 15 1025.4 1025.5 0.0
26/01:30pm 18.7 13.7 4.8 40 6.7 WSW 20 28 11 15 1025.6 - 0.0
26/01:00pm 18.8 14.3 6.0 43 6.3 SW 19 26 10 14 1026.1 1026.2 0.0
26/12:30pm 18.7 15.6 7.2 47 5.8 SW 13 20 7 11 1026.6 - 0.0
26/12:00pm 17.6 14.1 7.4 51 5.1 SSW 15 22 8 12 1027.2 1027.3 0.0
26/11:30am 17.1 14.1 7.5 53 4.8 SSW 13 22 7 12 1027.6 - 0.0
26/11:00am 16.6 13.2 7.8 56 4.4 SSW 15 20 8 11 1027.8 1027.9 0.0
26/10:30am 15.7 11.6 7.7 59 4.0 SSW 19 24 10 13 1028.1 - 0.0
26/10:00am 14.4 10.6 7.5 63 3.4 S 17 22 9 12 1027.9 1028.0 0.0
26/09:30am 12.7 9.2 7.2 69 2.7 SSW 15 19 8 10 1027.8 - 0.0
26/09:00am 10.6 6.4 5.8 72 2.2 SW 17 22 9 12 1027.6 1027.7 0.0
26/08:30am 8.9 5.3 5.1 77 1.7 WSW 13 19 7 10 1027.2 - 0.0
26/08:00am 6.6 3.2 3.9 83 1.1 W 11 13 6 7 1026.9 1027.0 0.0
26/07:30am 5.2 1.2 3.1 86 0.9 W 13 17 7 9 1026.5 - 0.0
26/07:00am 5.1 0.8 3.0 86 0.9 W 15 17 8 9 1026.1 1026.2 0.0
26/06:30am 5.3 0.9 2.7 83 1.1 W 15 17 8 9 1025.7 - 0.0
26/06:00am 5.5 1.1 2.7 82 1.1 W 15 15 8 8 1025.1 1025.2 0.0
26/05:30am 5.5 1.1 2.7 82 1.2 W 15 17 8 9 1024.6 - 0.0
26/05:00am 5.8 1.7 2.3 78 1.4 WSW 13 15 7 8 1024.1 1024.2 0.0
26/04:30am 6.3 2.2 2.0 74 1.8 WSW 13 15 7 8 1024.0 - 0.0
26/04:00am 7.5 3.1 2.6 71 2.0 W 15 17 8 9 1023.8 1024.0 0.0
26/03:30am 8.4 3.8 3.5 71 2.1 W 17 19 9 10 1023.6 - 0.0
26/03:00am 7.4 3.3 2.5 71 2.0 W 13 15 7 8 1023.6 1023.8 0.0
26/02:30am 7.8 3.7 2.5 69 2.2 WNW 13 15 7 8 1023.5 - 0.0
26/02:00am 9.3 5.0 3.3 66 2.6 WNW 15 19 8 10 1023.4 1023.6 0.0
26/01:30am 8.5 4.9 2.9 68 2.4 W 11 13 6 7 1023.3 - 0.0
26/01:00am 9.7 6.3 3.9 67 2.5 WSW 11 13 6 7 1023.2 1023.4 0.0
26/12:30am 9.5 4.9 3.7 67 2.5 W 17 20 9 11 1023.5 - 0.0
26/12:00am 9.4 5.8 3.2 65 2.7 SW 11 13 6 7 1023.2 1023.4 0.0
 
Date/Time
EST
Temp
°C
App
Temp
°C
Dew
Point
Rel
Hum
%
Delta-T
°C
Wind Press
QNH
hPa
Press
MSL
hPa
Rain
since 9 am
mm
Dir
 
Spd
km/h
Gust
km/h
Spd
kts
Gust
kts
25/11:30pm 9.5 5.2 3.0 64 2.8 W 15 17 8 9 1023.2 - 0.0
25/11:00pm 9.2 5.5 2.5 63 2.8 WSW 11 17 6 9 1023.1 1023.3 0.0
25/10:30pm 9.5 5.4 2.4 61 3.0 W 13 17 7 9 1023.1 - 0.0
25/10:00pm 10.6 7.3 2.7 58 3.4 SSW 9 11 5 6 1022.9 1023.1 0.0
25/09:30pm 11.1 7.8 2.7 56 3.6 SW 9 11 5 6 1022.6 - 0.0
25/09:00pm 11.7 8.5 3.0 55 3.8 SSW 9 11 5 6 1022.2 1022.4 0.0
25/08:30pm 11.5 8.6 2.5 54 3.9 SE 7 9 4 5 1022.0 - 0.0
25/08:00pm 11.9 9.1 2.9 54 3.9 ESE 7 9 4 5 1021.7 1021.8 0.0
25/07:30pm 12.5 9.8 2.7 51 4.3 SSW 6 7 3 4 1021.4 - 0.0
25/07:00pm 13.6 10.4 3.1 49 4.7 SSW 9 9 5 5 1021.0 1021.1 0.0
25/06:30pm 13.9 11.1 3.1 48 4.9 SSW 7 9 4 5 1020.6 - 0.0

Other Formats:

Comma delimited format used in spreadsheet applications
http://www.bom.gov.au/fwo/IDN60801/IDN60801.95695.axf

JavaScript Object Notation format (JSON) in row-major order
http://www.bom.gov.au/fwo/IDN60801/IDN60801.95695.json